createdAt,value
2023-02-05T00:01:37.314Z,76.4
2023-02-05T00:07:12.771Z,76.1
2023-02-05T00:12:56.520Z,76.6
2023-02-05T00:18:32.009Z,76
2023-02-05T00:24:07.410Z,76.3
2023-02-05T00:29:42.320Z,77.1
2023-02-05T00:35:17.361Z,76.6
2023-02-05T00:40:52.874Z,76.5
2023-02-05T00:46:28.430Z,77.5
2023-02-05T00:52:04.165Z,76.5
2023-02-05T00:57:39.144Z,77.2
2023-02-05T01:03:14.515Z,77.2
2023-02-05T01:08:49.339Z,77.2
2023-02-05T01:14:24.747Z,77.5
2023-02-05T01:20:00.019Z,77.4
2023-02-05T01:25:36.254Z,77
2023-02-05T01:31:12.518Z,77.2
2023-02-05T01:36:50.093Z,77.3
2023-02-05T01:42:26.502Z,77.1
2023-02-05T01:48:02.915Z,77
2023-02-05T01:53:39.252Z,77.8
2023-02-05T01:59:15.648Z,77.6
2023-02-05T02:04:51.450Z,78.4
2023-02-05T02:10:26.558Z,77.8
2023-02-05T02:16:03.133Z,78.6
2023-02-05T02:23:19.396Z,78.4
2023-02-05T02:29:15.855Z,77.6
2023-02-05T02:34:51.647Z,77.6
2023-02-05T02:40:26.555Z,77.7
2023-02-05T02:46:02.711Z,78
2023-02-05T02:51:49.591Z,78.5
2023-02-05T02:57:26.103Z,77.7
2023-02-05T03:03:03.099Z,77.8
2023-02-05T03:08:39.108Z,77.4
2023-02-05T03:14:21.627Z,77.8
2023-02-05T03:19:57.558Z,77.9
2023-02-05T03:25:33.842Z,77.2
2023-02-05T03:31:35.187Z,77.6
2023-02-05T03:37:23.784Z,77.1
2023-02-05T03:43:00.272Z,77.1
2023-02-05T03:48:36.050Z,76.8
2023-02-05T03:54:44.357Z,76.9
2023-02-05T04:00:19.821Z,77.1
2023-02-05T04:05:54.768Z,76.6
2023-02-05T04:11:30.127Z,76.4
2023-02-05T04:17:05.522Z,75.8
2023-02-05T04:22:40.957Z,76.3
2023-02-05T04:28:19.919Z,77.3
2023-02-05T04:33:55.403Z,76.8
2023-02-05T04:39:32.001Z,77.3
2023-02-05T04:45:06.893Z,76.8
2023-02-05T04:50:42.876Z,77
2023-02-05T04:56:21.149Z,76.6
2023-02-05T05:02:05.758Z,76.7
2023-02-05T05:07:42.353Z,75.7
2023-02-05T05:13:17.667Z,76.7
2023-02-05T05:18:55.363Z,77.5
2023-02-05T05:24:31.619Z,77.5
2023-02-05T05:30:06.956Z,77.3
2023-02-05T05:35:53.472Z,76.5
2023-02-05T05:41:36.753Z,74.5
2023-02-05T05:47:13.150Z,73.6
2023-02-05T05:52:51.811Z,74.9
2023-02-05T05:58:47.882Z,73.1
2023-02-05T06:04:27.087Z,71.3
2023-02-05T06:10:03.076Z,72.5
2023-02-05T06:15:38.993Z,70.7
2023-02-05T06:21:15.680Z,70.4
2023-02-05T06:26:59.205Z,70
2023-02-05T06:32:34.501Z,69.4
2023-02-05T06:38:10.003Z,70.6
2023-02-05T06:43:44.852Z,71.4
2023-02-05T06:49:20.760Z,72.5
2023-02-05T06:54:57.253Z,70.9
2023-02-05T07:00:33.162Z,74.1
2023-02-05T07:06:11.428Z,73.1
2023-02-05T07:11:47.427Z,74
2023-02-05T07:17:24.489Z,75.3
2023-02-05T07:22:59.308Z,75.4
2023-02-05T07:28:42.465Z,75.2
2023-02-05T07:34:17.610Z,76.7
2023-02-05T07:39:53.222Z,75.2
2023-02-05T07:45:29.908Z,76
2023-02-05T07:51:06.064Z,75.4
2023-02-05T07:56:40.960Z,76
2023-02-05T08:02:37.252Z,74.8
2023-02-05T08:08:13.176Z,74.4
2023-02-05T08:13:48.940Z,73.2
2023-02-05T08:19:28.586Z,72
2023-02-05T08:25:03.823Z,72.3
2023-02-05T08:30:39.063Z,72.1
2023-02-05T08:36:15.389Z,72.6
2023-02-05T08:42:04.923Z,73.5
2023-02-05T08:47:40.974Z,73.8
2023-02-05T08:53:16.933Z,73.3
2023-02-05T08:58:52.017Z,75.9
2023-02-05T09:04:27.375Z,76
2023-02-05T09:10:03.613Z,74.7
2023-02-05T09:15:39.572Z,72.9
2023-02-05T09:21:15.452Z,73.2
2023-02-05T09:26:50.721Z,73.1
2023-02-05T09:32:26.973Z,70.7
2023-02-05T09:38:02.461Z,70.8
2023-02-05T09:43:37.876Z,72.4
2023-02-05T09:49:13.853Z,71.7
2023-02-05T09:54:49.191Z,71.1
2023-02-05T10:00:24.848Z,71.2
2023-02-05T10:06:00.313Z,71.1
2023-02-05T10:11:35.256Z,69
2023-02-05T10:17:11.026Z,68
2023-02-05T10:22:46.970Z,68.5
2023-02-05T10:28:22.288Z,68.3
2023-02-05T10:33:57.450Z,67.3
2023-02-05T10:39:32.826Z,66.5
2023-02-05T10:45:08.677Z,64.6
2023-02-05T10:50:45.246Z,65.6
2023-02-05T10:56:20.614Z,64.7
2023-02-05T11:01:56.082Z,63.4
2023-02-05T11:07:33.073Z,62.5
2023-02-05T11:13:08.151Z,61.3
2023-02-05T11:18:44.250Z,60.8
2023-02-05T11:24:19.563Z,60.5
2023-02-05T11:29:54.721Z,59.2
2023-02-05T11:35:31.111Z,59.4
2023-02-05T11:41:07.926Z,60.9
2023-02-05T11:46:43.756Z,60.6
2023-02-05T11:52:20.130Z,60.1
2023-02-05T11:57:55.473Z,59.5
2023-02-05T12:03:36.303Z,60
2023-02-05T12:09:17.126Z,58.6
2023-02-05T12:15:01.027Z,59.5
2023-02-05T12:20:36.890Z,58
2023-02-05T12:26:12.139Z,58.1
2023-02-05T12:31:47.458Z,59.1
2023-02-05T12:37:23.404Z,58.7
2023-02-05T12:42:58.683Z,59.7
2023-02-05T12:48:56.237Z,59.8
2023-02-05T12:54:29.155Z,59.9
2023-02-05T13:00:04.760Z,59.9
2023-02-05T13:05:41.129Z,61.2
2023-02-05T13:11:16.539Z,60.3
2023-02-05T13:16:58.453Z,61.4
2023-02-05T13:22:39.458Z,61.1
2023-02-05T13:28:24.596Z,61.6
2023-02-05T13:33:59.882Z,61.9
2023-02-05T13:39:36.811Z,61.5
2023-02-05T13:45:12.203Z,62.5
2023-02-05T13:50:48.935Z,60.9
2023-02-05T13:56:33.487Z,62.4
2023-02-05T14:02:34.134Z,62
2023-02-05T14:08:28.476Z,62
2023-02-05T14:14:16.916Z,61.7
2023-02-05T14:19:51.851Z,61.8
2023-02-05T14:25:38.659Z,62.2
2023-02-05T14:31:18.309Z,63.2
2023-02-05T14:37:01.585Z,62.2
2023-02-05T14:42:36.606Z,63.2
2023-02-05T14:48:45.473Z,62.8
2023-02-05T14:54:18.580Z,61.5
2023-02-05T14:59:57.248Z,63.2
2023-02-05T15:05:33.553Z,62.8
2023-02-05T15:11:11.134Z,63.3
2023-02-05T15:16:46.320Z,65
2023-02-05T15:22:22.563Z,65.3
2023-02-05T15:28:00.966Z,64.4
2023-02-05T15:33:36.657Z,65.2
2023-02-05T15:39:11.918Z,64.5
2023-02-05T15:44:50.052Z,63.6
2023-02-05T15:50:25.211Z,64.1
2023-02-05T15:56:00.604Z,64.3
2023-02-05T16:01:35.609Z,62.1
2023-02-05T16:07:11.039Z,63.9
2023-02-05T16:12:46.400Z,65.7
2023-02-05T16:18:21.462Z,68
2023-02-05T16:23:56.797Z,70.5
2023-02-05T16:29:48.503Z,71.8
2023-02-05T16:35:26.427Z,71.4
2023-02-05T16:41:01.377Z,71.9
2023-02-05T16:46:58.498Z,72
2023-02-05T16:52:32.030Z,72.2
2023-02-05T16:58:08.346Z,73.3
2023-02-05T17:03:43.888Z,74.2
2023-02-05T17:09:18.792Z,75.5
2023-02-05T17:14:54.206Z,76.2
2023-02-05T17:20:30.720Z,76.7
2023-02-05T17:26:05.416Z,77.5
2023-02-05T17:31:41.006Z,77.6
2023-02-05T17:37:17.625Z,78.2
2023-02-05T17:43:02.179Z,77.7
2023-02-05T17:48:40.060Z,77.7
2023-02-05T17:54:22.430Z,77.4
2023-02-05T18:00:18.043Z,76.9
2023-02-05T18:05:53.081Z,77
2023-02-05T18:11:33.390Z,74.8
2023-02-05T18:17:08.623Z,73.7
2023-02-05T18:22:45.002Z,73.2
2023-02-05T18:28:30.061Z,72.9
2023-02-05T18:34:22.991Z,72.5
2023-02-05T18:40:25.195Z,72
2023-02-05T18:46:11.412Z,72
2023-02-05T18:51:47.756Z,71.9
2023-02-05T18:57:22.702Z,72
2023-02-05T19:02:58.755Z,71.8
2023-02-05T19:08:34.409Z,71.9
2023-02-05T19:14:09.894Z,71.4
2023-02-05T19:19:45.714Z,71
2023-02-05T19:25:25.669Z,71.2
2023-02-05T19:31:01.104Z,71.2
2023-02-05T19:36:38.077Z,71.2
2023-02-05T19:42:13.387Z,71.3
2023-02-05T19:47:49.675Z,70.9
2023-02-05T19:53:28.448Z,71.1
2023-02-05T19:59:07.676Z,70.9
2023-02-05T20:05:00.063Z,70.4
2023-02-05T20:10:36.895Z,70.4
2023-02-05T20:16:13.670Z,70.2
2023-02-05T20:21:49.429Z,70.1
2023-02-05T20:27:25.450Z,69.9
2023-02-05T20:33:09.457Z,70
2023-02-05T20:38:54.800Z,69.8
2023-02-05T20:44:29.916Z,69.8
2023-02-05T20:50:05.429Z,70
2023-02-05T20:56:01.295Z,70
2023-02-05T21:01:45.613Z,69.9
2023-02-05T21:07:21.554Z,69.7
2023-02-05T21:12:56.653Z,69.8
2023-02-05T21:18:35.305Z,69.7
2023-02-05T21:24:10.503Z,70.1
2023-02-05T21:29:55.628Z,69.8
2023-02-05T21:35:30.985Z,69.5
2023-02-05T21:41:06.128Z,69.5
2023-02-05T21:46:43.379Z,69.6
2023-02-05T21:52:21.220Z,69.2
2023-02-05T21:58:41.659Z,69.2
2023-02-05T22:04:16.737Z,69.3
2023-02-05T22:09:59.613Z,69.1
2023-02-05T22:15:36.640Z,69.2
2023-02-05T22:21:34.284Z,69.3
2023-02-05T22:27:21.392Z,69.4
2023-02-05T22:32:56.590Z,69.6
2023-02-05T22:38:31.734Z,69.5
2023-02-05T22:44:07.114Z,69.3
2023-02-05T22:49:44.045Z,69.4
2023-02-05T22:55:26.541Z,69.4
2023-02-05T23:01:01.942Z,69.5
2023-02-05T23:06:37.171Z,69.5
2023-02-05T23:12:33.434Z,69.6
2023-02-05T23:18:11.614Z,69.4
2023-02-05T23:23:46.641Z,69.4
2023-02-05T23:29:21.644Z,69.3
2023-02-05T23:35:17.893Z,69.4
2023-02-05T23:41:01.763Z,69.5
2023-02-05T23:46:38.181Z,69.4
2023-02-05T23:52:13.613Z,69.2
2023-02-05T23:57:56.952Z,69.3
